Lillooet, Canada
Current Conditions -  °F | °C
As of 9:00 AM on Friday 31 Oct 2014 (Local Time) from CWLY Reporting Station
Overcast Overcast  
Wind Chill: 50°   Ceiling: 9000
Heat Index: 50°   Visibility: 9mi
Dew Point: 46°   Wind: 3mph
Humidity: 87%   Direction: 190°S
Pressure: 29.7"   Gusts: NA
Location:  50.68°N, 121.93°W
Report Text: CWLY 311600Z AUTO 19003KT 130V200 9SM OVC090 10/08 A2970 RMK SLP061
Loading
Personal Weather Stations






























Interactive Weather Map
Tropical Storm Tracking
New forecast layout! Learn more

10-Day Weather Forecast

Advertisements
Track Severe Weather on mobile